sensor_id;sensor_type;location;lat;lon;timestamp;P1;durP1;ratioP1;P2;durP2;ratioP2
7199;SDS011;3641;49.082;8.200;2023-09-19T00:01:08;4.28;;;1.40;;
7199;SDS011;3641;49.082;8.200;2023-09-19T00:03:37;5.78;;;1.20;;
7199;SDS011;3641;49.082;8.200;2023-09-19T00:06:04;5.97;;;1.42;;
7199;SDS011;3641;49.082;8.200;2023-09-19T00:08:32;3.35;;;1.42;;
7199;SDS011;3641;49.082;8.200;2023-09-19T00:10:59;6.40;;;1.63;;
7199;SDS011;3641;49.082;8.200;2023-09-19T00:13:30;4.03;;;1.30;;
7199;SDS011;3641;49.082;8.200;2023-09-19T00:15:57;6.45;;;1.63;;
7199;SDS011;3641;49.082;8.200;2023-09-19T00:18:24;6.40;;;1.30;;
7199;SDS011;3641;49.082;8.200;2023-09-19T00:20:57;4.55;;;1.30;;
7199;SDS011;3641;49.082;8.200;2023-09-19T00:23:24;10.65;;;1.60;;
7199;SDS011;3641;49.082;8.200;2023-09-19T00:25:51;7.93;;;1.60;;
7199;SDS011;3641;49.082;8.200;2023-09-19T00:28:17;3.03;;;1.42;;
7199;SDS011;3641;49.082;8.200;2023-09-19T00:30:44;8.30;;;1.60;;
7199;SDS011;3641;49.082;8.200;2023-09-19T00:33:14;3.10;;;1.30;;
7199;SDS011;3641;49.082;8.200;2023-09-19T00:35:46;4.38;;;1.20;;
7199;SDS011;3641;49.082;8.200;2023-09-19T00:38:14;3.92;;;1.40;;
7199;SDS011;3641;49.082;8.200;2023-09-19T00:40:43;3.08;;;1.60;;
7199;SDS011;3641;49.082;8.200;2023-09-19T00:43:10;3.47;;;1.30;;
7199;SDS011;3641;49.082;8.200;2023-09-19T00:45:37;7.20;;;1.55;;
7199;SDS011;3641;49.082;8.200;2023-09-19T00:48:07;4.20;;;1.63;;
7199;SDS011;3641;49.082;8.200;2023-09-19T00:50:35;4.95;;;1.48;;
7199;SDS011;3641;49.082;8.200;2023-09-19T00:53:02;3.90;;;1.73;;
7199;SDS011;3641;49.082;8.200;2023-09-19T00:55:34;4.70;;;1.23;;
7199;SDS011;3641;49.082;8.200;2023-09-19T00:58:02;5.07;;;1.50;;
7199;SDS011;3641;49.082;8.200;2023-09-19T01:00:31;4.78;;;1.30;;
7199;SDS011;3641;49.082;8.200;2023-09-19T01:02:59;7.15;;;1.40;;
7199;SDS011;3641;49.082;8.200;2023-09-19T01:05:26;5.43;;;1.23;;
7199;SDS011;3641;49.082;8.200;2023-09-19T01:07:53;7.28;;;1.45;;
7199;SDS011;3641;49.082;8.200;2023-09-19T01:10:20;5.35;;;1.27;;
7199;SDS011;3641;49.082;8.200;2023-09-19T01:12:51;6.05;;;1.30;;
7199;SDS011;3641;49.082;8.200;2023-09-19T01:15:28;4.05;;;1.30;;
7199;SDS011;3641;49.082;8.200;2023-09-19T01:18:08;3.40;;;1.48;;
7199;SDS011;3641;49.082;8.200;2023-09-19T01:20:43;6.93;;;1.30;;
7199;SDS011;3641;49.082;8.200;2023-09-19T01:23:20;4.40;;;1.48;;
7199;SDS011;3641;49.082;8.200;2023-09-19T01:26:07;5.47;;;1.65;;
7199;SDS011;3641;49.082;8.200;2023-09-19T01:28:59;3.75;;;1.27;;
7199;SDS011;3641;49.082;8.200;2023-09-19T01:31:40;5.25;;;1.35;;
7199;SDS011;3641;49.082;8.200;2023-09-19T01:34:09;3.33;;;1.50;;
7199;SDS011;3641;49.082;8.200;2023-09-19T01:36:36;5.90;;;1.35;;
7199;SDS011;3641;49.082;8.200;2023-09-19T01:39:04;7.18;;;1.58;;
7199;SDS011;3641;49.082;8.200;2023-09-19T01:44:31;4.85;;;1.27;;
7199;SDS011;3641;49.082;8.200;2023-09-19T01:47:09;4.93;;;1.45;;
7199;SDS011;3641;49.082;8.200;2023-09-19T01:49:48;5.38;;;1.27;;
7199;SDS011;3641;49.082;8.200;2023-09-19T01:52:21;4.25;;;1.50;;
7199;SDS011;3641;49.082;8.200;2023-09-19T01:54:53;3.55;;;1.38;;
7199;SDS011;3641;49.082;8.200;2023-09-19T01:57:27;5.00;;;1.40;;
7199;SDS011;3641;49.082;8.200;2023-09-19T01:59:59;7.88;;;1.70;;
7199;SDS011;3641;49.082;8.200;2023-09-19T02:02:32;5.10;;;1.70;;
7199;SDS011;3641;49.082;8.200;2023-09-19T02:05:00;9.75;;;1.60;;
7199;SDS011;3641;49.082;8.200;2023-09-19T02:07:27;5.20;;;1.50;;
7199;SDS011;3641;49.082;8.200;2023-09-19T02:09:56;7.10;;;1.80;;
7199;SDS011;3641;49.082;8.200;2023-09-19T02:12:23;5.82;;;1.58;;
7199;SDS011;3641;49.082;8.200;2023-09-19T02:14:49;8.05;;;1.92;;
7199;SDS011;3641;49.082;8.200;2023-09-19T02:17:16;6.78;;;1.55;;
7199;SDS011;3641;49.082;8.200;2023-09-19T02:19:43;6.47;;;1.55;;
7199;SDS011;3641;49.082;8.200;2023-09-19T02:22:10;5.47;;;2.00;;
7199;SDS011;3641;49.082;8.200;2023-09-19T02:24:36;7.40;;;1.60;;
7199;SDS011;3641;49.082;8.200;2023-09-19T02:27:03;6.35;;;1.70;;
7199;SDS011;3641;49.082;8.200;2023-09-19T02:29:31;4.85;;;1.50;;
7199;SDS011;3641;49.082;8.200;2023-09-19T02:31:59;6.40;;;1.55;;
7199;SDS011;3641;49.082;8.200;2023-09-19T02:34:26;4.07;;;1.70;;
7199;SDS011;3641;49.082;8.200;2023-09-19T02:36:54;3.95;;;1.58;;
7199;SDS011;3641;49.082;8.200;2023-09-19T02:39:21;5.47;;;1.58;;
7199;SDS011;3641;49.082;8.200;2023-09-19T02:41:48;6.60;;;1.67;;
7199;SDS011;3641;49.082;8.200;2023-09-19T02:44:15;5.35;;;1.85;;
7199;SDS011;3641;49.082;8.200;2023-09-19T02:46:42;5.35;;;1.50;;
7199;SDS011;3641;49.082;8.200;2023-09-19T02:49:08;5.25;;;1.75;;
7199;SDS011;3641;49.082;8.200;2023-09-19T02:51:35;3.75;;;1.70;;
7199;SDS011;3641;49.082;8.200;2023-09-19T02:54:03;4.97;;;1.45;;
7199;SDS011;3641;49.082;8.200;2023-09-19T02:56:29;4.55;;;1.55;;
7199;SDS011;3641;49.082;8.200;2023-09-19T02:58:57;6.03;;;1.50;;
7199;SDS011;3641;49.082;8.200;2023-09-19T03:01:25;4.53;;;1.52;;
7199;SDS011;3641;49.082;8.200;2023-09-19T03:03:52;5.50;;;1.50;;
7199;SDS011;3641;49.082;8.200;2023-09-19T03:06:19;5.57;;;1.30;;
7199;SDS011;3641;49.082;8.200;2023-09-19T03:08:46;5.05;;;1.80;;
7199;SDS011;3641;49.082;8.200;2023-09-19T03:11:16;7.63;;;1.67;;
7199;SDS011;3641;49.082;8.200;2023-09-19T03:13:46;9.50;;;2.15;;
7199;SDS011;3641;49.082;8.200;2023-09-19T03:16:16;3.35;;;1.50;;
7199;SDS011;3641;49.082;8.200;2023-09-19T03:18:44;4.38;;;1.75;;
7199;SDS011;3641;49.082;8.200;2023-09-19T03:21:12;7.80;;;1.75;;
7199;SDS011;3641;49.082;8.200;2023-09-19T03:23:39;7.80;;;1.90;;
7199;SDS011;3641;49.082;8.200;2023-09-19T03:26:06;7.20;;;1.90;;
7199;SDS011;3641;49.082;8.200;2023-09-19T03:28:34;5.25;;;1.90;;
7199;SDS011;3641;49.082;8.200;2023-09-19T03:31:01;4.70;;;1.75;;
7199;SDS011;3641;49.082;8.200;2023-09-19T03:33:29;3.97;;;1.77;;
7199;SDS011;3641;49.082;8.200;2023-09-19T03:35:57;6.15;;;1.80;;
7199;SDS011;3641;49.082;8.200;2023-09-19T03:38:24;12.77;;;2.28;;
7199;SDS011;3641;49.082;8.200;2023-09-19T03:40:51;4.70;;;2.00;;
7199;SDS011;3641;49.082;8.200;2023-09-19T03:43:17;8.77;;;1.80;;
7199;SDS011;3641;49.082;8.200;2023-09-19T03:45:45;5.35;;;1.98;;
7199;SDS011;3641;49.082;8.200;2023-09-19T03:48:12;5.38;;;1.73;;
7199;SDS011;3641;49.082;8.200;2023-09-19T03:50:39;5.50;;;1.98;;
7199;SDS011;3641;49.082;8.200;2023-09-19T03:53:05;7.75;;;1.77;;
7199;SDS011;3641;49.082;8.200;2023-09-19T03:55:32;6.85;;;1.92;;
7199;SDS011;3641;49.082;8.200;2023-09-19T03:58:00;8.88;;;1.98;;
7199;SDS011;3641;49.082;8.200;2023-09-19T04:00:26;3.33;;;1.73;;
7199;SDS011;3641;49.082;8.200;2023-09-19T04:02:56;4.60;;;1.90;;
7199;SDS011;3641;49.082;8.200;2023-09-19T04:05:22;3.83;;;1.70;;
7199;SDS011;3641;49.082;8.200;2023-09-19T04:07:48;6.43;;;2.17;;
7199;SDS011;3641;49.082;8.200;2023-09-19T04:10:16;6.60;;;1.80;;
7199;SDS011;3641;49.082;8.200;2023-09-19T04:12:50;7.72;;;2.08;;
7199;SDS011;3641;49.082;8.200;2023-09-19T04:15:16;10.07;;;2.30;;
7199;SDS011;3641;49.082;8.200;2023-09-19T04:17:43;6.13;;;2.35;;
7199;SDS011;3641;49.082;8.200;2023-09-19T04:20:11;5.50;;;2.42;;
7199;SDS011;3641;49.082;8.200;2023-09-19T04:22:37;3.63;;;2.15;;
7199;SDS011;3641;49.082;8.200;2023-09-19T04:25:04;4.28;;;2.28;;
7199;SDS011;3641;49.082;8.200;2023-09-19T04:27:31;6.53;;;2.20;;
7199;SDS011;3641;49.082;8.200;2023-09-19T04:29:58;6.18;;;2.38;;
7199;SDS011;3641;49.082;8.200;2023-09-19T04:32:24;4.07;;;1.80;;
7199;SDS011;3641;49.082;8.200;2023-09-19T04:34:54;6.60;;;2.03;;
7199;SDS011;3641;49.082;8.200;2023-09-19T04:37:26;4.30;;;2.00;;
7199;SDS011;3641;49.082;8.200;2023-09-19T04:39:53;5.50;;;1.98;;
7199;SDS011;3641;49.082;8.200;2023-09-19T04:42:20;5.47;;;2.20;;
7199;SDS011;3641;49.082;8.200;2023-09-19T04:44:46;7.28;;;2.30;;
7199;SDS011;3641;49.082;8.200;2023-09-19T04:47:14;6.85;;;2.35;;
7199;SDS011;3641;49.082;8.200;2023-09-19T04:49:41;7.40;;;2.00;;
7199;SDS011;3641;49.082;8.200;2023-09-19T04:52:07;5.75;;;2.35;;
7199;SDS011;3641;49.082;8.200;2023-09-19T04:54:35;4.57;;;2.20;;
7199;SDS011;3641;49.082;8.200;2023-09-19T04:57:02;7.47;;;2.10;;
7199;SDS011;3641;49.082;8.200;2023-09-19T04:59:30;5.22;;;2.03;;
7199;SDS011;3641;49.082;8.200;2023-09-19T05:01:57;4.65;;;1.90;;
7199;SDS011;3641;49.082;8.200;2023-09-19T05:04:24;7.22;;;2.58;;
7199;SDS011;3641;49.082;8.200;2023-09-19T05:06:50;4.28;;;1.83;;
7199;SDS011;3641;49.082;8.200;2023-09-19T05:09:17;6.35;;;2.00;;
7199;SDS011;3641;49.082;8.200;2023-09-19T05:11:46;6.60;;;2.15;;
7199;SDS011;3641;49.082;8.200;2023-09-19T05:14:13;5.20;;;2.05;;
7199;SDS011;3641;49.082;8.200;2023-09-19T05:16:39;5.40;;;2.25;;
7199;SDS011;3641;49.082;8.200;2023-09-19T05:19:06;6.15;;;2.45;;
7199;SDS011;3641;49.082;8.200;2023-09-19T05:21:36;4.88;;;2.28;;
7199;SDS011;3641;49.082;8.200;2023-09-19T05:24:04;6.20;;;2.05;;
7199;SDS011;3641;49.082;8.200;2023-09-19T05:26:31;4.47;;;2.20;;
7199;SDS011;3641;49.082;8.200;2023-09-19T05:28:59;6.10;;;2.50;;
7199;SDS011;3641;49.082;8.200;2023-09-19T05:31:26;3.72;;;2.05;;
7199;SDS011;3641;49.082;8.200;2023-09-19T05:33:52;8.52;;;2.05;;
7199;SDS011;3641;49.082;8.200;2023-09-19T05:36:19;6.47;;;2.58;;
7199;SDS011;3641;49.082;8.200;2023-09-19T05:38:46;4.30;;;2.35;;
7199;SDS011;3641;49.082;8.200;2023-09-19T05:41:15;5.30;;;2.78;;
7199;SDS011;3641;49.082;8.200;2023-09-19T05:43:43;6.20;;;2.53;;
7199;SDS011;3641;49.082;8.200;2023-09-19T05:46:10;5.45;;;2.55;;
7199;SDS011;3641;49.082;8.200;2023-09-19T05:48:37;6.22;;;2.40;;
7199;SDS011;3641;49.082;8.200;2023-09-19T05:51:04;7.40;;;2.60;;
7199;SDS011;3641;49.082;8.200;2023-09-19T05:53:31;5.70;;;2.33;;
7199;SDS011;3641;49.082;8.200;2023-09-19T05:55:57;4.95;;;2.47;;
7199;SDS011;3641;49.082;8.200;2023-09-19T05:58:26;6.32;;;2.85;;
7199;SDS011;3641;49.082;8.200;2023-09-19T06:00:52;5.93;;;2.20;;
7199;SDS011;3641;49.082;8.200;2023-09-19T06:03:21;3.90;;;2.22;;
7199;SDS011;3641;49.082;8.200;2023-09-19T06:05:48;6.80;;;2.28;;
7199;SDS011;3641;49.082;8.200;2023-09-19T06:08:14;5.07;;;2.15;;
7199;SDS011;3641;49.082;8.200;2023-09-19T06:10:41;4.50;;;2.63;;
7199;SDS011;3641;49.082;8.200;2023-09-19T06:13:07;7.55;;;2.38;;
7199;SDS011;3641;49.082;8.200;2023-09-19T06:15:34;4.65;;;1.98;;
7199;SDS011;3641;49.082;8.200;2023-09-19T06:18:01;9.30;;;2.25;;
7199;SDS011;3641;49.082;8.200;2023-09-19T06:20:31;5.32;;;2.13;;
7199;SDS011;3641;49.082;8.200;2023-09-19T06:22:58;8.20;;;2.38;;
7199;SDS011;3641;49.082;8.200;2023-09-19T06:25:26;7.72;;;2.50;;
7199;SDS011;3641;49.082;8.200;2023-09-19T06:27:53;6.85;;;2.20;;
7199;SDS011;3641;49.082;8.200;2023-09-19T06:30:21;7.20;;;2.20;;
7199;SDS011;3641;49.082;8.200;2023-09-19T06:32:49;5.68;;;2.33;;
7199;SDS011;3641;49.082;8.200;2023-09-19T06:35:15;5.15;;;2.42;;
7199;SDS011;3641;49.082;8.200;2023-09-19T06:37:43;9.88;;;2.58;;
7199;SDS011;3641;49.082;8.200;2023-09-19T06:40:10;7.00;;;2.10;;
7199;SDS011;3641;49.082;8.200;2023-09-19T06:42:39;10.13;;;2.15;;
7199;SDS011;3641;49.082;8.200;2023-09-19T06:45:07;4.63;;;2.10;;
7199;SDS011;3641;49.082;8.200;2023-09-19T06:47:36;6.32;;;2.13;;
7199;SDS011;3641;49.082;8.200;2023-09-19T06:50:03;8.95;;;2.30;;
7199;SDS011;3641;49.082;8.200;2023-09-19T06:52:30;7.57;;;2.63;;
7199;SDS011;3641;49.082;8.200;2023-09-19T06:54:59;6.20;;;1.90;;
7199;SDS011;3641;49.082;8.200;2023-09-19T06:57:28;4.10;;;1.80;;
7199;SDS011;3641;49.082;8.200;2023-09-19T06:59:55;5.70;;;1.90;;
7199;SDS011;3641;49.082;8.200;2023-09-19T07:02:22;7.20;;;2.00;;
7199;SDS011;3641;49.082;8.200;2023-09-19T07:04:48;4.70;;;1.92;;
7199;SDS011;3641;49.082;8.200;2023-09-19T07:07:15;5.07;;;2.10;;
7199;SDS011;3641;49.082;8.200;2023-09-19T07:09:41;6.47;;;1.70;;
7199;SDS011;3641;49.082;8.200;2023-09-19T07:12:09;4.10;;;2.15;;
7199;SDS011;3641;49.082;8.200;2023-09-19T07:14:37;7.82;;;2.22;;
7199;SDS011;3641;49.082;8.200;2023-09-19T07:17:03;3.25;;;1.70;;
7199;SDS011;3641;49.082;8.200;2023-09-19T07:19:29;6.28;;;1.80;;
7199;SDS011;3641;49.082;8.200;2023-09-19T07:21:56;6.32;;;1.70;;
7199;SDS011;3641;49.082;8.200;2023-09-19T07:24:24;6.78;;;1.98;;
7199;SDS011;3641;49.082;8.200;2023-09-19T07:26:51;6.95;;;1.90;;
7199;SDS011;3641;49.082;8.200;2023-09-19T07:29:19;8.40;;;1.80;;
7199;SDS011;3641;49.082;8.200;2023-09-19T07:31:46;7.97;;;2.38;;
7199;SDS011;3641;49.082;8.200;2023-09-19T07:34:13;9.23;;;1.98;;
7199;SDS011;3641;49.082;8.200;2023-09-19T07:36:40;4.85;;;1.70;;
7199;SDS011;3641;49.082;8.200;2023-09-19T07:39:07;5.38;;;1.70;;
7199;SDS011;3641;49.082;8.200;2023-09-19T07:41:33;6.72;;;1.80;;
7199;SDS011;3641;49.082;8.200;2023-09-19T07:44:00;8.98;;;1.83;;
7199;SDS011;3641;49.082;8.200;2023-09-19T07:46:28;7.28;;;1.77;;
7199;SDS011;3641;49.082;8.200;2023-09-19T07:48:56;5.35;;;2.00;;
7199;SDS011;3641;49.082;8.200;2023-09-19T07:51:22;7.72;;;1.70;;
7199;SDS011;3641;49.082;8.200;2023-09-19T07:53:49;6.43;;;1.77;;
7199;SDS011;3641;49.082;8.200;2023-09-19T07:56:15;4.53;;;1.52;;
7199;SDS011;3641;49.082;8.200;2023-09-19T07:58:42;8.38;;;1.90;;
7199;SDS011;3641;49.082;8.200;2023-09-19T08:01:10;5.57;;;1.42;;
7199;SDS011;3641;49.082;8.200;2023-09-19T08:03:40;3.05;;;1.50;;
7199;SDS011;3641;49.082;8.200;2023-09-19T08:06:08;10.00;;;1.73;;
7199;SDS011;3641;49.082;8.200;2023-09-19T08:08:34;3.10;;;1.27;;
7199;SDS011;3641;49.082;8.200;2023-09-19T08:11:02;10.90;;;2.35;;
7199;SDS011;3641;49.082;8.200;2023-09-19T08:13:35;3.70;;;1.35;;
7199;SDS011;3641;49.082;8.200;2023-09-19T08:16:03;5.63;;;1.67;;
7199;SDS011;3641;49.082;8.200;2023-09-19T08:18:29;6.50;;;1.70;;
7199;SDS011;3641;49.082;8.200;2023-09-19T08:20:57;7.03;;;1.27;;
7199;SDS011;3641;49.082;8.200;2023-09-19T08:23:25;3.30;;;1.33;;
7199;SDS011;3641;49.082;8.200;2023-09-19T08:25:55;3.20;;;1.20;;
7199;SDS011;3641;49.082;8.200;2023-09-19T08:28:22;4.75;;;1.60;;
7199;SDS011;3641;49.082;8.200;2023-09-19T08:30:49;5.55;;;1.90;;
7199;SDS011;3641;49.082;8.200;2023-09-19T08:33:16;6.00;;;1.40;;
7199;SDS011;3641;49.082;8.200;2023-09-19T08:35:42;7.70;;;1.42;;
7199;SDS011;3641;49.082;8.200;2023-09-19T08:38:11;4.85;;;1.30;;
7199;SDS011;3641;49.082;8.200;2023-09-19T08:40:39;4.28;;;1.30;;
7199;SDS011;3641;49.082;8.200;2023-09-19T08:43:07;5.03;;;1.38;;
7199;SDS011;3641;49.082;8.200;2023-09-19T08:45:34;6.18;;;1.10;;
7199;SDS011;3641;49.082;8.200;2023-09-19T08:48:04;2.65;;;1.08;;
7199;SDS011;3641;49.082;8.200;2023-09-19T08:50:43;3.70;;;1.23;;
7199;SDS011;3641;49.082;8.200;2023-09-19T08:53:20;5.25;;;1.50;;
7199;SDS011;3641;49.082;8.200;2023-09-19T08:55:52;4.93;;;1.20;;
7199;SDS011;3641;49.082;8.200;2023-09-19T08:58:21;6.80;;;1.40;;
7199;SDS011;3641;49.082;8.200;2023-09-19T09:00:54;4.32;;;1.38;;
7199;SDS011;3641;49.082;8.200;2023-09-19T09:03:22;4.80;;;1.70;;
7199;SDS011;3641;49.082;8.200;2023-09-19T09:05:49;8.48;;;1.35;;
7199;SDS011;3641;49.082;8.200;2023-09-19T09:08:18;10.45;;;1.65;;
7199;SDS011;3641;49.082;8.200;2023-09-19T09:10:46;11.88;;;4.10;;
7199;SDS011;3641;49.082;8.200;2023-09-19T09:13:13;6.25;;;1.55;;
7199;SDS011;3641;49.082;8.200;2023-09-19T09:15:40;7.55;;;1.40;;
7199;SDS011;3641;49.082;8.200;2023-09-19T09:18:09;9.13;;;2.63;;
7199;SDS011;3641;49.082;8.200;2023-09-19T09:20:36;11.85;;;3.72;;
7199;SDS011;3641;49.082;8.200;2023-09-19T09:23:02;4.85;;;1.40;;
7199;SDS011;3641;49.082;8.200;2023-09-19T09:28:19;8.93;;;2.22;;
7199;SDS011;3641;49.082;8.200;2023-09-19T09:30:47;21.35;;;7.68;;
7199;SDS011;3641;49.082;8.200;2023-09-19T09:33:15;8.40;;;2.35;;
7199;SDS011;3641;49.082;8.200;2023-09-19T09:35:48;6.38;;;1.33;;
7199;SDS011;3641;49.082;8.200;2023-09-19T09:38:18;11.88;;;2.40;;
7199;SDS011;3641;49.082;8.200;2023-09-19T09:40:49;15.02;;;2.97;;
7199;SDS011;3641;49.082;8.200;2023-09-19T09:43:27;5.47;;;1.52;;
7199;SDS011;3641;49.082;8.200;2023-09-19T09:46:07;4.68;;;1.48;;
7199;SDS011;3641;49.082;8.200;2023-09-19T09:48:56;5.65;;;1.38;;
7199;SDS011;3641;49.082;8.200;2023-09-19T09:51:44;4.80;;;1.27;;
7199;SDS011;3641;49.082;8.200;2023-09-19T09:54:14;4.85;;;1.42;;
7199;SDS011;3641;49.082;8.200;2023-09-19T09:56:53;4.00;;;1.20;;
7199;SDS011;3641;49.082;8.200;2023-09-19T09:59:23;4.63;;;1.25;;
7199;SDS011;3641;49.082;8.200;2023-09-19T10:02:11;4.03;;;1.20;;
7199;SDS011;3641;49.082;8.200;2023-09-19T10:04:39;5.97;;;1.20;;
7199;SDS011;3641;49.082;8.200;2023-09-19T10:07:23;5.45;;;1.30;;
7199;SDS011;3641;49.082;8.200;2023-09-19T10:09:52;6.13;;;1.40;;
7199;SDS011;3641;49.082;8.200;2023-09-19T10:12:25;5.20;;;1.45;;
7199;SDS011;3641;49.082;8.200;2023-09-19T10:14:54;6.88;;;1.30;;
7199;SDS011;3641;49.082;8.200;2023-09-19T10:17:24;3.42;;;1.25;;
7199;SDS011;3641;49.082;8.200;2023-09-19T10:19:54;5.53;;;1.58;;
7199;SDS011;3641;49.082;8.200;2023-09-19T10:22:23;6.00;;;1.10;;
7199;SDS011;3641;49.082;8.200;2023-09-19T10:24:52;4.43;;;1.70;;
7199;SDS011;3641;49.082;8.200;2023-09-19T10:27:20;4.97;;;1.88;;
7199;SDS011;3641;49.082;8.200;2023-09-19T10:29:49;4.93;;;1.20;;
7199;SDS011;3641;49.082;8.200;2023-09-19T10:32:16;4.93;;;1.10;;
7199;SDS011;3641;49.082;8.200;2023-09-19T10:34:44;5.47;;;1.10;;
7199;SDS011;3641;49.082;8.200;2023-09-19T10:37:13;4.25;;;1.30;;
7199;SDS011;3641;49.082;8.200;2023-09-19T10:39:44;4.93;;;1.23;;
7199;SDS011;3641;49.082;8.200;2023-09-19T10:42:13;3.58;;;1.10;;
7199;SDS011;3641;49.082;8.200;2023-09-19T10:44:45;3.92;;;1.10;;
7199;SDS011;3641;49.082;8.200;2023-09-19T10:47:15;4.68;;;1.08;;
7199;SDS011;3641;49.082;8.200;2023-09-19T10:49:44;3.58;;;0.90;;
7199;SDS011;3641;49.082;8.200;2023-09-19T10:52:12;4.00;;;1.20;;
7199;SDS011;3641;49.082;8.200;2023-09-19T10:54:44;3.50;;;1.05;;
7199;SDS011;3641;49.082;8.200;2023-09-19T10:57:18;3.67;;;0.90;;
7199;SDS011;3641;49.082;8.200;2023-09-19T11:00:00;4.53;;;1.27;;
7199;SDS011;3641;49.082;8.200;2023-09-19T11:05:59;4.30;;;1.08;;
7199;SDS011;3641;49.082;8.200;2023-09-19T11:08:29;2.72;;;1.23;;
7199;SDS011;3641;49.082;8.200;2023-09-19T11:10:57;4.65;;;1.20;;
7199;SDS011;3641;49.082;8.200;2023-09-19T11:13:24;5.90;;;1.15;;
7199;SDS011;3641;49.082;8.200;2023-09-19T11:18:52;9.15;;;1.35;;
7199;SDS011;3641;49.082;8.200;2023-09-19T11:21:38;3.42;;;1.00;;
7199;SDS011;3641;49.082;8.200;2023-09-19T11:24:29;6.45;;;1.38;;
7199;SDS011;3641;49.082;8.200;2023-09-19T11:27:10;3.92;;;1.27;;
7199;SDS011;3641;49.082;8.200;2023-09-19T11:29:38;5.38;;;1.20;;
7199;SDS011;3641;49.082;8.200;2023-09-19T11:32:06;3.20;;;1.20;;
7199;SDS011;3641;49.082;8.200;2023-09-19T11:40:27;3.50;;;0.82;;
7199;SDS011;3641;49.082;8.200;2023-09-19T11:42:55;4.35;;;1.20;;
7199;SDS011;3641;49.082;8.200;2023-09-19T11:48:26;6.28;;;1.20;;
7199;SDS011;3641;49.082;8.200;2023-09-19T11:50:55;4.32;;;1.13;;
7199;SDS011;3641;49.082;8.200;2023-09-19T11:53:24;4.28;;;1.20;;
7199;SDS011;3641;49.082;8.200;2023-09-19T11:55:58;4.55;;;1.10;;
7199;SDS011;3641;49.082;8.200;2023-09-19T11:58:25;4.65;;;1.20;;
7199;SDS011;3641;49.082;8.200;2023-09-19T12:00:54;8.32;;;1.73;;
7199;SDS011;3641;49.082;8.200;2023-09-19T12:03:22;8.93;;;1.23;;
7199;SDS011;3641;49.082;8.200;2023-09-19T12:05:49;2.90;;;1.00;;
7199;SDS011;3641;49.082;8.200;2023-09-19T12:08:18;3.80;;;1.40;;
7199;SDS011;3641;49.082;8.200;2023-09-19T12:10:46;2.55;;;1.08;;
7199;SDS011;3641;49.082;8.200;2023-09-19T12:13:16;3.53;;;1.30;;
7199;SDS011;3641;49.082;8.200;2023-09-19T12:15:42;4.80;;;1.40;;
7199;SDS011;3641;49.082;8.200;2023-09-19T12:18:10;3.83;;;1.30;;
7199;SDS011;3641;49.082;8.200;2023-09-19T12:20:51;2.85;;;0.90;;
7199;SDS011;3641;49.082;8.200;2023-09-19T12:23:19;4.20;;;0.80;;
7199;SDS011;3641;49.082;8.200;2023-09-19T12:25:46;5.45;;;1.20;;
7199;SDS011;3641;49.082;8.200;2023-09-19T12:28:17;4.15;;;1.20;;
7199;SDS011;3641;49.082;8.200;2023-09-19T12:30:43;2.78;;;1.00;;
7199;SDS011;3641;49.082;8.200;2023-09-19T12:33:15;3.70;;;0.90;;
7199;SDS011;3641;49.082;8.200;2023-09-19T12:35:44;5.63;;;1.17;;
7199;SDS011;3641;49.082;8.200;2023-09-19T12:38:13;4.32;;;1.08;;
7199;SDS011;3641;49.082;8.200;2023-09-19T12:40:50;5.10;;;1.20;;
7199;SDS011;3641;49.082;8.200;2023-09-19T12:43:17;2.35;;;0.90;;
7199;SDS011;3641;49.082;8.200;2023-09-19T12:45:44;3.08;;;1.10;;
7199;SDS011;3641;49.082;8.200;2023-09-19T12:48:20;2.70;;;1.00;;
7199;SDS011;3641;49.082;8.200;2023-09-19T12:51:00;2.45;;;1.02;;
7199;SDS011;3641;49.082;8.200;2023-09-19T12:53:32;3.33;;;1.08;;
7199;SDS011;3641;49.082;8.200;2023-09-19T12:56:01;6.60;;;1.23;;
7199;SDS011;3641;49.082;8.200;2023-09-19T12:58:31;5.32;;;1.23;;
7199;SDS011;3641;49.082;8.200;2023-09-19T13:00:59;4.30;;;1.30;;
7199;SDS011;3641;49.082;8.200;2023-09-19T13:03:28;1.73;;;1.00;;
7199;SDS011;3641;49.082;8.200;2023-09-19T13:05:57;2.38;;;1.10;;
7199;SDS011;3641;49.082;8.200;2023-09-19T13:08:26;2.95;;;0.90;;
7199;SDS011;3641;49.082;8.200;2023-09-19T13:11:09;3.25;;;0.82;;
7199;SDS011;3641;49.082;8.200;2023-09-19T13:13:41;2.30;;;0.88;;
7199;SDS011;3641;49.082;8.200;2023-09-19T13:16:11;3.83;;;1.00;;
7199;SDS011;3641;49.082;8.200;2023-09-19T13:18:43;4.50;;;1.02;;
7199;SDS011;3641;49.082;8.200;2023-09-19T13:21:11;3.88;;;1.10;;
7199;SDS011;3641;49.082;8.200;2023-09-19T13:23:47;2.45;;;0.95;;
7199;SDS011;3641;49.082;8.200;2023-09-19T13:26:15;4.30;;;0.90;;
7199;SDS011;3641;49.082;8.200;2023-09-19T13:28:41;2.97;;;1.00;;
7199;SDS011;3641;49.082;8.200;2023-09-19T13:31:09;3.60;;;1.17;;
7199;SDS011;3641;49.082;8.200;2023-09-19T13:33:35;3.08;;;1.17;;
7199;SDS011;3641;49.082;8.200;2023-09-19T13:36:09;2.35;;;0.90;;
7199;SDS011;3641;49.082;8.200;2023-09-19T13:38:36;4.05;;;0.90;;
7199;SDS011;3641;49.082;8.200;2023-09-19T13:41:03;2.30;;;0.80;;
7199;SDS011;3641;49.082;8.200;2023-09-19T13:43:31;4.78;;;1.15;;
7199;SDS011;3641;49.082;8.200;2023-09-19T13:45:57;2.63;;;0.98;;
7199;SDS011;3641;49.082;8.200;2023-09-19T13:48:24;3.17;;;1.08;;
7199;SDS011;3641;49.082;8.200;2023-09-19T13:50:50;3.45;;;1.00;;
7199;SDS011;3641;49.082;8.200;2023-09-19T13:53:17;2.83;;;1.00;;
7199;SDS011;3641;49.082;8.200;2023-09-19T13:55:44;1.83;;;0.90;;
7199;SDS011;3641;49.082;8.200;2023-09-19T13:58:11;2.95;;;1.10;;
7199;SDS011;3641;49.082;8.200;2023-09-19T14:00:39;2.88;;;1.42;;
7199;SDS011;3641;49.082;8.200;2023-09-19T14:03:05;2.88;;;0.90;;
7199;SDS011;3641;49.082;8.200;2023-09-19T14:05:32;3.00;;;1.00;;
7199;SDS011;3641;49.082;8.200;2023-09-19T14:07:58;4.45;;;1.38;;
7199;SDS011;3641;49.082;8.200;2023-09-19T14:10:25;7.03;;;1.10;;
7199;SDS011;3641;49.082;8.200;2023-09-19T14:12:52;2.15;;;0.90;;
7199;SDS011;3641;49.082;8.200;2023-09-19T14:15:19;3.92;;;1.15;;
7199;SDS011;3641;49.082;8.200;2023-09-19T14:17:55;2.05;;;1.00;;
7199;SDS011;3641;49.082;8.200;2023-09-19T14:20:22;3.03;;;1.00;;
7199;SDS011;3641;49.082;8.200;2023-09-19T14:22:49;2.92;;;0.90;;
7199;SDS011;3641;49.082;8.200;2023-09-19T14:25:16;1.13;;;0.88;;
7199;SDS011;3641;49.082;8.200;2023-09-19T14:27:42;2.72;;;1.00;;
7199;SDS011;3641;49.082;8.200;2023-09-19T14:30:09;2.63;;;0.90;;
7199;SDS011;3641;49.082;8.200;2023-09-19T14:32:36;2.78;;;1.08;;
7199;SDS011;3641;49.082;8.200;2023-09-19T14:35:04;5.72;;;1.00;;
7199;SDS011;3641;49.082;8.200;2023-09-19T14:37:31;3.90;;;0.80;;
7199;SDS011;3641;49.082;8.200;2023-09-19T14:39:58;2.40;;;0.90;;
7199;SDS011;3641;49.082;8.200;2023-09-19T14:42:25;1.92;;;0.80;;
7199;SDS011;3641;49.082;8.200;2023-09-19T14:44:52;3.58;;;1.10;;
7199;SDS011;3641;49.082;8.200;2023-09-19T14:47:18;3.72;;;1.13;;
7199;SDS011;3641;49.082;8.200;2023-09-19T14:49:45;2.15;;;0.93;;
7199;SDS011;3641;49.082;8.200;2023-09-19T14:52:12;2.17;;;0.85;;
7199;SDS011;3641;49.082;8.200;2023-09-19T14:54:40;3.95;;;0.88;;
7199;SDS011;3641;49.082;8.200;2023-09-19T14:57:07;4.10;;;1.27;;
7199;SDS011;3641;49.082;8.200;2023-09-19T14:59:33;2.15;;;0.98;;
7199;SDS011;3641;49.082;8.200;2023-09-19T15:02:02;3.20;;;1.13;;
7199;SDS011;3641;49.082;8.200;2023-09-19T15:04:28;2.70;;;0.98;;
7199;SDS011;3641;49.082;8.200;2023-09-19T15:06:55;3.15;;;1.25;;
7199;SDS011;3641;49.082;8.200;2023-09-19T15:09:23;1.83;;;0.93;;
7199;SDS011;3641;49.082;8.200;2023-09-19T15:11:51;3.70;;;0.98;;
7199;SDS011;3641;49.082;8.200;2023-09-19T15:14:17;3.10;;;0.90;;
7199;SDS011;3641;49.082;8.200;2023-09-19T15:16:43;2.35;;;0.90;;
7199;SDS011;3641;49.082;8.200;2023-09-19T15:19:10;2.13;;;0.90;;
7199;SDS011;3641;49.082;8.200;2023-09-19T15:21:36;3.00;;;1.02;;
7199;SDS011;3641;49.082;8.200;2023-09-19T15:24:03;1.98;;;1.27;;
7199;SDS011;3641;49.082;8.200;2023-09-19T15:26:34;3.47;;;1.20;;
7199;SDS011;3641;49.082;8.200;2023-09-19T15:29:04;2.47;;;1.00;;
7199;SDS011;3641;49.082;8.200;2023-09-19T15:31:30;3.85;;;1.25;;
7199;SDS011;3641;49.082;8.200;2023-09-19T15:33:57;2.05;;;1.08;;
7199;SDS011;3641;49.082;8.200;2023-09-19T15:36:23;1.95;;;0.80;;
7199;SDS011;3641;49.082;8.200;2023-09-19T15:38:56;1.45;;;0.80;;
7199;SDS011;3641;49.082;8.200;2023-09-19T15:41:24;3.97;;;0.95;;
7199;SDS011;3641;49.082;8.200;2023-09-19T15:43:53;2.17;;;1.02;;
7199;SDS011;3641;49.082;8.200;2023-09-19T15:46:19;2.25;;;1.00;;